San Angelo, TX

5:12 AM CDT on August 21, 2014 (GMT -0500)
Country Club Lake Estates | Change Station
CLOSE
Current Station
Personal Weather Station
Location: San Angelo, TX
Elevation: 1857 ft
Nearby Weather Stations

Elev 1857 ft 31.39 °N, 100.46 °W | Updated 12 seconds ago

Clear
Clear
77.1 °F
Feels Like 79 °F
N
0.0
Wind Variable Wind from South
Gusts 0.0 mph

Today
High -- | Low -- °F
--% Chance of Precip.
Yesterday
High -- | Low -- °F
Precip. -- in
7:11 AM 8:18 PM
Waning Crescent, 15% visible
Pressure 29.88 in
Visibility 10.0 miles
Clouds Clear
Heat Index 79 °F
Dew Point 71 °F
Humidity 81%
Rainfall 0.00 in
Snow Depth Not available.
UV 0.0 out of 12
Pollen 7.70 out of 12
Air Quality Not available.
Flu Activity Not available.
METAR KSJT 210851Z AUTO 16011KT 10SM CLR 26/21 A2997 RMK AO2 SLP119 T02610211 53001

More Conditions Fewer Conditions

Pressure 29.88 in
Visibility 10.0 miles
Clouds Clear
Heat Index 79 °F
Dew Point 71 °F
Humidity 81%
Rainfall 0.00 in
Snow Depth Not available.
UV 0.0 out of 12
Pollen 7.70 out of 12
Air Quality Not available.
Flu Activity Not available.
METAR KSJT 210851Z AUTO 16011KT 10SM CLR 26/21 A2997 RMK AO2 SLP119 T02610211 53001

More Conditions Fewer Conditions

10-Day Weather Forecast

Almanac

Astronomy

Aug. 21, 2014 Rise Set
Actual Time 7:11 AM CDT 8:18 PM CDT
Civil Twilight 6:45 AM CDT 8:43 PM CDT
Nautical Twilight 6:16 AM CDT 9:13 PM CDT
Astronomical Twilight 5:45 AM CDT 9:44 PM CDT
Moon 3:49 AM CDT 5:43 PM CDT
Length of Visible Light 13h 57m
Length of Day
13h 07m
Tomorrow will be 1m 45s shorter.
Waning Crescent, 15% of the Moon is Illuminated
Today
Waning Crescent
Aug 25
New
Sep 2
First Quarter
Sep 8
Full
Sep 15
Last Quarter

Today's Extremes

State Highs State Lows

Community

WunderPhotos

Upload Photos

1,745,871 photos uploaded!

Nearby

Snow Depth

Station Depth Elevation
No new snow has been reported.

Earthquake Activity

City Distance Mag. Time & Date
No recent earthquake activity has been reported nearby.
Minimum magnitude displayed is 2.5.

Coastal Water Temperatures

Place Temperature
No Stations Reporting

Nearby Weather Stations